Time;durP1;ratioP1;P1;durP2;ratioP2;P2;SDS_P1;SDS_P2;PMS_P1;PMS_P2;Temp;Humidity;BMP_temperature;BMP_pressure;BME280_temperature;BME280_humidity;BME280_pressure;Samples;Min_cycle;Max_cycle;Signal;HPM_P1;HPM_P2
2020/12/14 00:00:09;;;;;;;2.25;0.63;;;;;12.90;100373.00;;;;5086829;28;20202;-76
2020/12/14 00:02:36;;;;;;;4.90;1.30;;;;;12.90;100367.00;;;;5092352;28;20234;-76
2020/12/14 00:05:04;;;;;;;3.05;1.02;;;;;12.90;100367.00;;;;5101668;28;21073;-77
2020/12/14 00:07:31;;;;;;;1.55;0.70;;;;;12.90;100351.00;;;;5091995;28;20198;-76
2020/12/14 00:09:59;;;;;;;0.88;0.50;;;;;12.90;100359.00;;;;5089730;28;20198;-76
2020/12/14 00:12:25;;;;;;;2.80;0.73;;;;;12.90;100364.00;;;;5107547;28;20193;-76
2020/12/14 00:14:52;;;;;;;1.85;0.93;;;;;12.90;100365.00;;;;5096809;28;20216;-77
2020/12/14 00:17:19;;;;;;;2.50;1.27;;;;;12.90;100359.00;;;;5091671;28;20206;-76
2020/12/14 00:19:46;;;;;;;4.22;0.75;;;;;12.90;100368.00;;;;5092688;28;20200;-77
2020/12/14 00:22:13;;;;;;;3.38;0.60;;;;;13.00;100367.00;;;;5092583;28;20218;-76
2020/12/14 00:24:40;;;;;;;3.00;0.80;;;;;13.00;100355.00;;;;5099793;28;20232;-76
2020/12/14 00:27:08;;;;;;;3.40;1.30;;;;;13.00;100364.00;;;;5098184;28;20655;-76
2020/12/14 00:29:34;;;;;;;4.85;0.82;;;;;13.00;100357.00;;;;5098637;28;20198;-76
2020/12/14 00:32:01;;;;;;;2.63;0.80;;;;;13.00;100352.00;;;;5091331;28;20202;-76
2020/12/14 00:34:28;;;;;;;4.25;0.70;;;;;13.00;100344.00;;;;5090374;28;20201;-76
2020/12/14 00:36:55;;;;;;;1.10;0.50;;;;;13.00;100344.00;;;;5094746;28;20206;-75
2020/12/14 00:39:22;;;;;;;1.38;0.68;;;;;13.10;100344.00;;;;5108642;28;20197;-77
2020/12/14 00:41:48;;;;;;;2.10;0.98;;;;;13.00;100346.00;;;;5091037;28;20558;-77
2020/12/14 00:44:16;;;;;;;2.53;0.80;;;;;13.10;100347.00;;;;5090772;28;20218;-75
2020/12/14 00:46:45;;;;;;;4.72;1.02;;;;;13.10;100354.00;;;;5090308;28;20213;-76
2020/12/14 00:49:12;;;;;;;2.15;1.10;;;;;13.10;100359.00;;;;5092823;28;20229;-76
2020/12/14 00:51:39;;;;;;;2.15;0.73;;;;;13.10;100357.00;;;;5110932;28;20220;-76
2020/12/14 00:54:07;;;;;;;2.45;1.25;;;;;13.10;100352.00;;;;5098310;28;20210;-76
2020/12/14 00:56:34;;;;;;;1.17;0.63;;;;;13.10;100357.00;;;;5093746;28;20213;-76
2020/12/14 00:59:00;;;;;;;1.67;0.68;;;;;13.10;100364.00;;;;5104177;28;20225;-77
2020/12/14 01:01:29;;;;;;;2.58;1.00;;;;;13.20;100360.00;;;;5090176;28;20206;-76
2020/12/14 01:03:55;;;;;;;2.97;0.85;;;;;13.20;100365.00;;;;5094148;28;20309;-76
2020/12/14 01:06:22;;;;;;;4.85;0.88;;;;;13.20;100352.00;;;;5094775;28;20197;-76
2020/12/14 01:08:50;;;;;;;1.70;0.75;;;;;13.20;100346.00;;;;5091128;28;20195;-76
2020/12/14 01:11:16;;;;;;;3.03;0.60;;;;;13.20;100342.00;;;;5093196;28;20225;-76
2020/12/14 01:13:45;;;;;;;3.72;1.00;;;;;13.20;100336.00;;;;5111127;28;20194;-76
2020/12/14 01:16:12;;;;;;;1.13;0.70;;;;;13.20;100338.00;;;;5094104;28;20183;-76
2020/12/14 01:18:40;;;;;;;2.92;0.77;;;;;13.30;100341.00;;;;5104231;28;20742;-76
2020/12/14 01:21:07;;;;;;;2.45;0.70;;;;;13.30;100338.00;;;;5098281;28;20200;-77
2020/12/14 01:23:34;;;;;;;0.98;0.60;;;;;13.30;100344.00;;;;5108676;28;20228;-76
2020/12/14 01:26:00;;;;;;;1.33;0.73;;;;;13.30;100337.00;;;;5105811;28;20243;-76
2020/12/14 01:28:27;;;;;;;1.73;0.80;;;;;13.30;100341.00;;;;5103230;28;20202;-76
2020/12/14 01:30:54;;;;;;;2.22;1.00;;;;;13.30;100340.00;;;;5110601;28;20198;-76
2020/12/14 01:33:21;;;;;;;1.25;0.63;;;;;13.30;100348.00;;;;5097341;28;20639;-76
2020/12/14 01:35:48;;;;;;;0.57;0.40;;;;;13.30;100347.00;;;;5104745;28;20570;-76
2020/12/14 01:38:15;;;;;;;0.80;0.50;;;;;13.30;100341.00;;;;5098855;28;20202;-76
2020/12/14 01:40:42;;;;;;;1.42;0.75;;;;;13.40;100344.00;;;;5093132;28;20594;-76
2020/12/14 01:43:09;;;;;;;0.95;0.57;;;;;13.40;100342.00;;;;5069305;28;20233;-77
2020/12/14 01:45:35;;;;;;;1.15;0.35;;;;;13.40;100336.00;;;;5086500;28;20201;-77
2020/12/14 01:48:06;;;;;;;0.95;0.47;;;;;13.40;100337.00;;;;5101745;28;20245;-77
2020/12/14 01:50:33;;;;;;;1.25;0.40;;;;;13.40;100337.00;;;;5105859;28;20997;-76
2020/12/14 01:53:01;;;;;;;2.67;0.65;;;;;13.40;100333.00;;;;5089847;28;20194;-76
2020/12/14 01:55:32;;;;;;;2.35;0.57;;;;;13.40;100325.00;;;;5106984;28;20185;-77
2020/12/14 01:57:59;;;;;;;1.92;0.55;;;;;13.50;100326.00;;;;5109831;28;20737;-76
2020/12/14 02:00:26;;;;;;;1.40;0.47;;;;;13.50;100314.00;;;;5090257;28;20206;-76
2020/12/14 02:02:53;;;;;;;0.57;0.40;;;;;13.50;100313.00;;;;5089471;28;20230;-77
2020/12/14 02:05:19;;;;;;;1.30;0.70;;;;;13.50;100323.00;;;;5096241;28;20194;-76
2020/12/14 02:07:46;;;;;;;1.92;0.57;;;;;13.50;100314.00;;;;5089397;28;20187;-76
2020/12/14 02:10:14;;;;;;;1.33;0.77;;;;;13.60;100300.00;;;;5102312;28;20203;-77
2020/12/14 02:12:41;;;;;;;1.55;1.02;;;;;13.60;100303.00;;;;5091062;28;20198;-77
2020/12/14 02:15:08;;;;;;;5.03;0.77;;;;;13.60;100309.00;;;;5109876;28;20203;-76
2020/12/14 02:17:35;;;;;;;2.55;0.30;;;;;13.60;100316.00;;;;5100265;28;20660;-77
2020/12/14 02:20:03;;;;;;;1.23;0.57;;;;;13.60;100316.00;;;;5091788;28;20678;-76
2020/12/14 02:22:30;;;;;;;1.23;0.80;;;;;13.70;100321.00;;;;5105170;28;20229;-77
2020/12/14 02:24:59;;;;;;;2.58;0.90;;;;;13.60;100326.00;;;;5088920;28;20206;-77
2020/12/14 02:27:27;;;;;;;2.88;0.68;;;;;13.70;100325.00;;;;5089187;28;20198;-77
2020/12/14 02:29:54;;;;;;;0.82;0.50;;;;;13.70;100323.00;;;;5109159;28;20209;-77
2020/12/14 02:32:23;;;;;;;2.03;0.70;;;;;13.70;100322.00;;;;5105828;28;20209;-78
2020/12/14 02:34:50;;;;;;;1.33;0.68;;;;;13.70;100315.00;;;;5101856;28;20587;-77
2020/12/14 02:37:21;;;;;;;0.80;0.47;;;;;13.70;100311.00;;;;5088199;28;20655;-76
2020/12/14 02:39:48;;;;;;;1.65;0.70;;;;;13.70;100301.00;;;;5093386;28;20197;-77
2020/12/14 02:42:18;;;;;;;0.90;0.50;;;;;13.70;100300.00;;;;5108737;28;20209;-76
2020/12/14 02:44:45;;;;;;;2.05;0.88;;;;;13.70;100306.00;;;;5107274;28;20204;-76
2020/12/14 02:47:12;;;;;;;2.10;0.73;;;;;13.70;100305.00;;;;5108662;28;20205;-77
2020/12/14 02:49:40;;;;;;;2.42;0.50;;;;;13.70;100314.00;;;;5105632;28;20217;-76
2020/12/14 02:52:08;;;;;;;1.60;0.60;;;;;13.70;100305.00;;;;5101551;28;20205;-76
2020/12/14 02:54:36;;;;;;;2.00;0.57;;;;;13.70;100311.00;;;;5107246;28;20202;-76
2020/12/14 02:57:03;;;;;;;0.75;0.50;;;;;13.70;100301.00;;;;5107205;28;20246;-77
2020/12/14 02:59:31;;;;;;;1.92;0.80;;;;;13.70;100294.00;;;;5101085;28;20213;-76
2020/12/14 03:01:58;;;;;;;1.33;0.80;;;;;13.70;100297.00;;;;5101027;28;20198;-77
2020/12/14 03:04:25;;;;;;;2.28;0.80;;;;;13.70;100289.00;;;;5098661;28;20588;-77
2020/12/14 03:06:52;;;;;;;1.83;0.88;;;;;13.70;100285.00;;;;5091197;28;20209;-76
2020/12/14 03:09:20;;;;;;;2.13;0.60;;;;;13.70;100293.00;;;;5088160;28;20205;-77
2020/12/14 03:11:47;;;;;;;2.22;0.80;;;;;13.70;100290.00;;;;5107335;28;20198;-77
2020/12/14 03:14:15;;;;;;;2.80;1.05;;;;;13.70;100288.00;;;;5108463;28;20196;-76
2020/12/14 03:16:43;;;;;;;0.75;0.47;;;;;13.70;100286.00;;;;5077950;28;20560;-76
2020/12/14 03:19:10;;;;;;;1.73;0.80;;;;;13.70;100277.00;;;;5101037;28;20198;-76
2020/12/14 03:21:37;;;;;;;1.92;0.68;;;;;13.70;100278.00;;;;5087743;28;20540;-76
2020/12/14 03:24:04;;;;;;;1.88;0.60;;;;;13.70;100281.00;;;;5093947;28;20565;-76
2020/12/14 03:26:31;;;;;;;0.93;0.57;;;;;13.70;100281.00;;;;5099745;28;20754;-76
2020/12/14 03:28:59;;;;;;;0.90;0.50;;;;;13.70;100285.00;;;;5087989;28;20691;-76
2020/12/14 03:31:26;;;;;;;1.40;0.60;;;;;13.70;100277.00;;;;5089444;28;20206;-77
2020/12/14 03:33:54;;;;;;;1.65;0.90;;;;;13.70;100283.00;;;;5108650;28;20202;-76
2020/12/14 03:36:22;;;;;;;2.72;0.60;;;;;13.70;100291.00;;;;5093813;28;20204;-77
2020/12/14 03:38:49;;;;;;;2.17;0.75;;;;;13.80;100285.00;;;;5088760;28;20194;-77
2020/12/14 03:41:16;;;;;;;1.20;0.80;;;;;13.80;100284.00;;;;5100953;28;20701;-77
2020/12/14 03:43:43;;;;;;;2.50;0.80;;;;;13.70;100276.00;;;;5096765;28;20225;-78
2020/12/14 03:46:17;;;;;;;2.25;0.73;;;;;13.70;100283.00;;;;5101174;28;20194;-78
2020/12/14 03:48:44;;;;;;;1.17;0.68;;;;;13.80;100279.00;;;;5111616;28;20193;-77
2020/12/14 03:51:12;;;;;;;1.50;0.73;;;;;13.70;100281.00;;;;5111865;28;20200;-78
2020/12/14 03:53:39;;;;;;;1.13;0.70;;;;;13.80;100285.00;;;;5111612;28;20205;-77
2020/12/14 03:56:06;;;;;;;1.10;0.50;;;;;13.70;100275.00;;;;5093756;28;20727;-77
2020/12/14 03:58:33;;;;;;;2.13;0.70;;;;;13.70;100271.00;;;;5109215;28;20605;-78
2020/12/14 04:00:59;;;;;;;2.45;0.65;;;;;13.70;100273.00;;;;5096850;28;20205;-78
2020/12/14 04:03:26;;;;;;;2.60;0.57;;;;;13.70;100277.00;;;;5110822;28;20225;-78
2020/12/14 04:05:53;;;;;;;1.02;0.60;;;;;13.70;100268.00;;;;5096452;28;20198;-77
2020/12/14 04:08:21;;;;;;;1.42;0.60;;;;;13.70;100283.00;;;;5099369;28;20190;-78
2020/12/14 04:10:48;;;;;;;1.13;0.70;;;;;13.70;100281.00;;;;5107627;28;20194;-78
2020/12/14 04:13:14;;;;;;;0.73;0.47;;;;;13.80;100268.00;;;;5102017;28;20258;-77
2020/12/14 04:15:41;;;;;;;1.13;0.63;;;;;13.80;100269.00;;;;5110087;28;20189;-78
2020/12/14 04:18:08;;;;;;;0.77;0.50;;;;;13.80;100284.00;;;;5097841;28;20198;-78
2020/12/14 04:20:35;;;;;;;0.68;0.50;;;;;13.80;100281.00;;;;5091664;28;20609;-78
2020/12/14 04:23:01;;;;;;;1.50;0.65;;;;;13.80;100284.00;;;;5092167;28;20267;-78
2020/12/14 04:25:29;;;;;;;1.45;0.88;;;;;13.80;100269.00;;;;5091247;28;20210;-78
2020/12/14 04:27:59;;;;;;;1.30;0.85;;;;;13.80;100286.00;;;;5091249;28;21262;-78
2020/12/14 04:30:26;;;;;;;1.42;0.70;;;;;13.80;100270.00;;;;5091786;28;20198;-78
2020/12/14 04:32:53;;;;;;;1.17;0.80;;;;;13.80;100268.00;;;;5105253;28;20197;-78
2020/12/14 04:35:19;;;;;;;2.15;0.70;;;;;13.80;100267.00;;;;5105493;28;20199;-78
2020/12/14 04:37:46;;;;;;;0.65;0.52;;;;;13.80;100261.00;;;;5106168;28;20956;-77
2020/12/14 04:40:13;;;;;;;1.30;0.80;;;;;13.80;100270.00;;;;5099032;28;20202;-78
2020/12/14 04:42:41;;;;;;;1.65;0.82;;;;;13.80;100266.00;;;;5098876;28;20201;-78
2020/12/14 04:45:08;;;;;;;1.55;0.80;;;;;13.80;100264.00;;;;5111888;28;20197;-78
2020/12/14 04:47:36;;;;;;;1.13;0.77;;;;;13.80;100258.00;;;;5103590;28;20190;-79
2020/12/14 04:50:03;;;;;;;1.23;1.00;;;;;13.90;100266.00;;;;5097686;28;20763;-78
2020/12/14 04:52:33;;;;;;;1.88;0.70;;;;;13.80;100257.00;;;;5101532;28;20664;-78
2020/12/14 04:55:01;;;;;;;2.63;0.90;;;;;13.80;100256.00;;;;5090973;28;20251;-78
2020/12/14 04:57:31;;;;;;;1.15;0.80;;;;;13.90;100259.00;;;;5094519;28;20637;-78
2020/12/14 04:59:58;;;;;;;4.53;1.02;;;;;13.90;100248.00;;;;5109280;28;20209;-78
2020/12/14 05:02:26;;;;;;;2.78;1.00;;;;;13.90;100248.00;;;;5110204;28;20196;-78
2020/12/14 05:04:52;;;;;;;1.00;0.95;;;;;13.90;100245.00;;;;5108467;28;20285;-77
2020/12/14 05:07:36;;;;;;;0.80;0.70;;;;;13.90;100247.00;;;;5089698;28;20205;-78
2020/12/14 05:10:03;;;;;;;1.30;0.75;;;;;13.90;100242.00;;;;5106383;28;20201;-78
2020/12/14 05:12:30;;;;;;;1.45;1.00;;;;;13.90;100238.00;;;;5096778;28;20198;-78
2020/12/14 05:15:00;;;;;;;1.30;0.75;;;;;13.90;100246.00;;;;5092293;28;20707;-78
2020/12/14 05:17:26;;;;;;;2.13;0.90;;;;;13.90;100252.00;;;;5110549;28;20929;-78
2020/12/14 05:19:53;;;;;;;1.58;1.10;;;;;13.90;100251.00;;;;5104877;28;20710;-78
2020/12/14 05:22:20;;;;;;;1.40;0.95;;;;;13.90;100256.00;;;;5090018;28;20206;-78
2020/12/14 05:24:50;;;;;;;1.60;1.20;;;;;13.90;100249.00;;;;5092290;28;20217;-78
2020/12/14 05:27:32;;;;;;;1.10;0.80;;;;;13.80;100248.00;;;;5089905;28;20671;-78
2020/12/14 05:30:00;;;;;;;1.63;1.10;;;;;13.90;100244.00;;;;5097556;28;20192;-78
2020/12/14 05:32:27;;;;;;;1.05;0.75;;;;;13.90;100226.00;;;;5099986;28;20202;-77
2020/12/14 05:34:54;;;;;;;1.23;0.80;;;;;13.90;100220.00;;;;5101919;28;21176;-78
2020/12/14 05:37:21;;;;;;;2.78;0.90;;;;;13.90;100221.00;;;;5109917;28;20686;-78
2020/12/14 05:39:47;;;;;;;1.88;1.17;;;;;14.00;100222.00;;;;5104254;28;20205;-78
2020/12/14 05:42:16;;;;;;;0.80;0.80;;;;;13.90;100226.00;;;;5089548;28;20194;-79
2020/12/14 05:44:44;;;;;;;1.25;0.88;;;;;14.00;100228.00;;;;5092659;28;20695;-78
2020/12/14 05:47:27;;;;;;;2.00;1.23;;;;;13.90;100215.00;;;;5105855;28;20572;-78
2020/12/14 05:49:54;;;;;;;2.95;1.23;;;;;14.00;100209.00;;;;5089677;28;20315;-77
2020/12/14 05:52:23;;;;;;;1.40;1.10;;;;;14.00;100232.00;;;;5094235;28;20201;-78
2020/12/14 05:54:53;;;;;;;1.23;1.13;;;;;14.00;100268.00;;;;5109802;28;20213;-78
2020/12/14 05:57:33;;;;;;;1.55;1.05;;;;;13.90;100247.00;;;;5106241;28;20218;-78
2020/12/14 06:00:04;;;;;;;1.20;1.10;;;;;14.00;100247.00;;;;5093162;28;20255;-78
2020/12/14 06:02:31;;;;;;;0.98;0.95;;;;;14.10;100251.00;;;;5085467;28;20202;-78
2020/12/14 06:05:02;;;;;;;1.33;0.80;;;;;14.10;100251.00;;;;5094506;28;20229;-78
2020/12/14 06:07:30;;;;;;;1.67;1.13;;;;;14.10;100254.00;;;;5088132;28;20202;-78
2020/12/14 06:10:09;;;;;;;1.55;1.20;;;;;14.10;100255.00;;;;5090431;28;20221;-78
2020/12/14 06:12:37;;;;;;;1.38;1.15;;;;;14.10;100256.00;;;;5091576;28;20192;-78
2020/12/14 06:15:07;;;;;;;1.77;1.30;;;;;14.10;100260.00;;;;5089227;28;20278;-78
2020/12/14 06:17:36;;;;;;;1.15;1.05;;;;;14.10;100257.00;;;;5088853;28;20206;-78
2020/12/14 06:20:14;;;;;;;1.10;1.00;;;;;14.10;100257.00;;;;5094828;28;20508;-78
2020/12/14 06:22:44;;;;;;;1.48;1.10;;;;;14.20;100257.00;;;;5091649;28;20675;-78
2020/12/14 06:25:12;;;;;;;1.33;1.23;;;;;14.20;100257.00;;;;5090534;28;20191;-78
2020/12/14 06:27:38;;;;;;;1.50;1.10;;;;;14.20;100246.00;;;;5088258;28;20193;-78
2020/12/14 06:30:31;;;;;;;2.45;1.27;;;;;14.10;100243.00;;;;5083156;28;20204;-78
2020/12/14 06:33:05;;;;;;;1.75;1.13;;;;;14.20;100232.00;;;;5085446;28;20237;-78
2020/12/14 06:35:43;;;;;;;1.30;1.20;;;;;14.20;100231.00;;;;5076650;28;20260;-77
2020/12/14 06:38:10;;;;;;;1.98;1.20;;;;;14.30;100221.00;;;;5088760;28;20202;-78
2020/12/14 06:40:56;;;;;;;1.42;1.15;;;;;14.20;100235.00;;;;5088158;28;20213;-77
2020/12/14 06:43:29;;;;;;;1.95;1.05;;;;;14.30;100236.00;;;;5072963;28;20651;-78
2020/12/14 06:45:56;;;;;;;1.50;1.40;;;;;14.30;100225.00;;;;5087109;28;20608;-79
2020/12/14 06:48:39;;;;;;;2.17;1.58;;;;;14.30;100238.00;;;;5090122;28;20194;-77
2020/12/14 06:51:07;;;;;;;1.70;1.35;;;;;14.30;100242.00;;;;5091716;28;20198;-76
2020/12/14 06:53:45;;;;;;;1.60;1.50;;;;;14.30;100243.00;;;;5088403;28;20209;-76
2020/12/14 06:56:15;;;;;;;2.15;1.45;;;;;14.40;100247.00;;;;5088851;28;20198;-77
2020/12/14 06:58:43;;;;;;;1.55;1.40;;;;;14.40;100247.00;;;;5087964;28;20373;-79
2020/12/14 07:01:33;;;;;;;3.05;1.60;;;;;14.30;100243.00;;;;5089465;28;20196;-79
2020/12/14 07:04:02;;;;;;;1.80;1.20;;;;;14.40;100239.00;;;;5098595;28;20224;-79
2020/12/14 07:06:30;;;;;;;1.40;1.30;;;;;14.40;100231.00;;;;5095318;28;20194;-81
2020/12/14 07:08:57;;;;;;;2.00;1.60;;;;;14.50;100239.00;;;;5096990;28;20288;-81
2020/12/14 07:11:25;;;;;;;1.55;1.20;;;;;14.50;100236.00;;;;5108261;28;20206;-80
2020/12/14 07:13:53;;;;;;;3.25;1.23;;;;;14.50;100241.00;;;;5100674;28;20628;-79
2020/12/14 07:16:29;;;;;;;2.28;1.60;;;;;14.50;100256.00;;;;5100861;28;20186;-78
2020/12/14 07:18:56;;;;;;;2.13;1.50;;;;;14.50;100247.00;;;;5094350;28;20195;-79
2020/12/14 07:21:28;;;;;;;2.65;1.80;;;;;14.50;100259.00;;;;5087286;28;20289;-79
2020/12/14 07:23:57;;;;;;;3.35;1.58;;;;;14.50;100268.00;;;;5097480;28;20229;-79
2020/12/14 07:26:25;;;;;;;2.42;1.52;;;;;14.60;100265.00;;;;5087168;28;20205;-78
2020/12/14 07:28:51;;;;;;;1.58;1.42;;;;;14.60;100262.00;;;;5087962;28;20256;-78
2020/12/14 07:31:20;;;;;;;1.58;1.48;;;;;14.60;100272.00;;;;5086954;28;20664;-78
2020/12/14 07:33:53;;;;;;;1.63;1.40;;;;;14.60;100272.00;;;;5086349;28;20664;-78
2020/12/14 07:36:21;;;;;;;1.65;1.55;;;;;14.60;100270.00;;;;5088146;28;20197;-78
2020/12/14 07:38:50;;;;;;;1.85;1.30;;;;;14.60;100256.00;;;;5087681;28;20213;-78
2020/12/14 07:41:17;;;;;;;1.42;1.33;;;;;14.60;100266.00;;;;5088155;28;20206;-78
2020/12/14 07:43:54;;;;;;;2.42;1.35;;;;;14.60;100272.00;;;;5086378;28;20625;-78
2020/12/14 07:46:30;;;;;;;2.38;1.70;;;;;14.60;100269.00;;;;5067914;28;20202;-78
2020/12/14 07:48:59;;;;;;;1.42;1.00;;;;;14.70;100276.00;;;;5086506;28;20202;-79
2020/12/14 07:51:26;;;;;;;1.48;1.35;;;;;14.70;100281.00;;;;5087536;28;20201;-78
2020/12/14 07:54:02;;;;;;;1.75;1.10;;;;;14.70;100278.00;;;;5088187;28;20194;-78
2020/12/14 07:56:29;;;;;;;1.40;1.30;;;;;14.70;100279.00;;;;5087090;28;20968;-78
2020/12/14 07:58:56;;;;;;;1.48;1.20;;;;;14.80;100287.00;;;;5090740;28;20217;-79
2020/12/14 08:01:22;;;;;;;1.67;1.25;;;;;14.80;100284.00;;;;5094181;28;20525;-78
2020/12/14 08:03:50;;;;;;;1.95;1.17;;;;;14.80;100288.00;;;;5097481;28;20222;-79
2020/12/14 08:06:18;;;;;;;1.83;1.08;;;;;14.80;100295.00;;;;5096058;28;20194;-80
2020/12/14 08:08:48;;;;;;;1.30;1.20;;;;;14.80;100295.00;;;;5093630;28;20202;-78
2020/12/14 08:11:17;;;;;;;1.58;1.23;;;;;14.90;100300.00;;;;5089305;28;20212;-77
2020/12/14 08:13:46;;;;;;;1.60;1.27;;;;;14.90;100304.00;;;;5092331;28;20201;-78
2020/12/14 08:16:17;;;;;;;1.33;1.23;;;;;14.90;100305.00;;;;5080530;28;20203;-78
2020/12/14 08:18:45;;;;;;;1.20;1.10;;;;;15.00;100299.00;;;;5082824;28;20198;-78
2020/12/14 08:21:23;;;;;;;2.28;1.42;;;;;14.90;100302.00;;;;5097460;28;20235;-81
2020/12/14 08:23:49;;;;;;;1.40;1.20;;;;;15.00;100301.00;;;;5093622;28;20217;-80
2020/12/14 08:26:24;;;;;;;1.75;1.17;;;;;15.00;100305.00;;;;5092278;28;20213;-84
2020/12/14 08:28:57;;;;;;;1.50;1.40;;;;;15.00;100298.00;;;;5084999;28;20225;-83
2020/12/14 08:31:24;;;;;;;2.10;1.25;;;;;15.00;100292.00;;;;5073325;28;20282;-84
2020/12/14 08:33:52;;;;;;;2.63;1.40;;;;;15.00;100297.00;;;;5087704;28;20259;-83
2020/12/14 08:36:19;;;;;;;0.80;0.68;;;;;15.10;100290.00;;;;5092071;28;20579;-80
2020/12/14 08:38:47;;;;;;;1.40;1.30;;;;;15.10;100294.00;;;;5100412;28;20210;-80
2020/12/14 08:41:18;;;;;;;1.95;1.30;;;;;15.10;100294.00;;;;5094924;28;20581;-81
2020/12/14 08:43:45;;;;;;;1.10;1.00;;;;;15.20;100294.00;;;;5087850;28;20214;-81
2020/12/14 08:46:14;;;;;;;1.58;1.48;;;;;15.20;100311.00;;;;5092726;28;20206;-81
2020/12/14 08:48:44;;;;;;;2.42;1.10;;;;;15.20;100314.00;;;;5095186;28;20269;-83
2020/12/14 08:51:13;;;;;;;1.10;1.00;;;;;15.20;100318.00;;;;5097222;28;20777;-82
2020/12/14 08:53:41;;;;;;;2.50;1.02;;;;;15.30;100321.00;;;;5098293;28;20305;-81
2020/12/14 08:56:09;;;;;;;2.05;1.05;;;;;15.30;100332.00;;;;5097870;28;20194;-82
2020/12/14 08:58:54;;;;;;;3.25;1.20;;;;;15.20;100334.00;;;;5089766;28;20729;-81
2020/12/14 09:01:23;;;;;;;1.10;1.00;;;;;15.40;100335.00;;;;5087863;28;20205;-80
2020/12/14 09:03:53;;;;;;;1.33;0.88;;;;;15.40;100326.00;;;;5101804;28;20271;-81
2020/12/14 09:06:25;;;;;;;1.48;1.20;;;;;15.40;100333.00;;;;5090538;28;21027;-81
2020/12/14 09:09:12;;;;;;;1.00;0.73;;;;;15.40;100332.00;;;;5089941;28;20205;-82
2020/12/14 09:11:50;;;;;;;1.15;1.02;;;;;15.40;100350.00;;;;5094416;28;20247;-83
2020/12/14 09:14:22;;;;;;;2.20;1.50;;;;;15.50;100350.00;;;;5104928;28;20229;-82
2020/12/14 09:16:51;;;;;;;1.63;1.08;;;;;15.60;100354.00;;;;5092370;28;20196;-83
2020/12/14 09:19:22;;;;;;;1.30;1.08;;;;;15.60;100357.00;;;;5094578;28;20688;-81
2020/12/14 09:21:49;;;;;;;1.38;1.20;;;;;15.60;100359.00;;;;5089628;28;20588;-82
2020/12/14 09:24:18;;;;;;;1.38;1.17;;;;;15.70;100361.00;;;;5093187;28;20218;-82
2020/12/14 09:26:46;;;;;;;2.25;1.05;;;;;15.70;100364.00;;;;5086577;28;20195;-82
2020/12/14 09:29:13;;;;;;;1.80;1.00;;;;;15.80;100363.00;;;;5096303;28;20198;-82
2020/12/14 09:31:49;;;;;;;1.25;1.10;;;;;15.80;100364.00;;;;5104542;28;20201;-82
2020/12/14 09:34:16;;;;;;;1.30;0.95;;;;;15.90;100363.00;;;;5088907;28;20221;-83
2020/12/14 09:36:42;;;;;;;1.10;0.90;;;;;15.90;100378.00;;;;5102710;28;20212;-81
2020/12/14 09:39:09;;;;;;;1.15;1.05;;;;;15.90;100371.00;;;;5088987;28;20201;-83
2020/12/14 09:41:36;;;;;;;1.05;0.95;;;;;16.00;100372.00;;;;5091759;28;20267;-82
2020/12/14 09:44:03;;;;;;;1.30;1.00;;;;;16.00;100374.00;;;;5090709;28;20228;-81
2020/12/14 09:46:31;;;;;;;1.50;1.40;;;;;16.00;100379.00;;;;5088533;28;20194;-81
2020/12/14 09:48:59;;;;;;;1.27;1.17;;;;;16.10;100382.00;;;;5089281;28;20191;-81
2020/12/14 09:51:26;;;;;;;1.30;0.90;;;;;16.10;100382.00;;;;5106252;28;20255;-81
2020/12/14 09:53:54;;;;;;;0.88;0.88;;;;;16.10;100394.00;;;;5090923;28;20202;-82
2020/12/14 09:56:20;;;;;;;2.03;1.10;;;;;16.20;100387.00;;;;5100820;28;20201;-79
2020/12/14 09:58:47;;;;;;;1.42;0.90;;;;;16.20;100394.00;;;;5079391;28;20235;-81
2020/12/14 10:01:14;;;;;;;1.48;1.10;;;;;16.30;100403.00;;;;5098301;28;20201;-80
2020/12/14 10:03:41;;;;;;;1.10;1.00;;;;;16.30;100400.00;;;;5092433;28;20225;-81
2020/12/14 10:06:11;;;;;;;0.90;0.80;;;;;16.30;100404.00;;;;5085326;28;20198;-79
2020/12/14 10:08:38;;;;;;;1.83;0.98;;;;;16.40;100397.00;;;;5091912;28;20200;-80
2020/12/14 10:11:05;;;;;;;1.02;0.73;;;;;16.50;100408.00;;;;5088003;28;20207;-81
2020/12/14 10:13:32;;;;;;;1.13;0.90;;;;;16.50;100415.00;;;;5096742;28;20202;-81
2020/12/14 10:15:58;;;;;;;1.02;0.90;;;;;16.50;100418.00;;;;5099137;28;20191;-80
2020/12/14 10:18:25;;;;;;;3.08;1.00;;;;;16.50;100415.00;;;;5102937;28;20202;-81
2020/12/14 10:20:52;;;;;;;1.20;1.00;;;;;16.60;100413.00;;;;5092590;28;20594;-80
2020/12/14 10:23:20;;;;;;;0.95;0.88;;;;;16.60;100410.00;;;;5088413;28;20210;-79
2020/12/14 10:25:47;;;;;;;0.95;0.88;;;;;16.60;100402.00;;;;5082761;28;20421;-80
2020/12/14 10:28:14;;;;;;;1.35;0.93;;;;;16.70;100413.00;;;;5085946;28;20281;-79
2020/12/14 10:30:41;;;;;;;1.20;0.90;;;;;16.70;100407.00;;;;5088026;28;20213;-79
2020/12/14 10:33:07;;;;;;;1.58;0.77;;;;;16.70;100407.00;;;;5089476;28;20201;-79
2020/12/14 10:35:34;;;;;;;1.10;1.00;;;;;16.70;100415.00;;;;5097560;28;20205;-80
2020/12/14 10:38:01;;;;;;;1.27;0.77;;;;;16.70;100400.00;;;;5088719;28;20194;-80
2020/12/14 10:40:29;;;;;;;1.13;0.90;;;;;16.70;100398.00;;;;5089116;28;20587;-80
2020/12/14 10:42:56;;;;;;;0.60;0.57;;;;;16.80;100392.00;;;;5098410;28;20205;-81
2020/12/14 10:45:23;;;;;;;1.90;1.25;;;;;16.80;100403.00;;;;5102765;28;20947;-81
2020/12/14 10:47:50;;;;;;;1.33;0.75;;;;;16.80;100405.00;;;;5105971;28;20197;-81
2020/12/14 10:50:17;;;;;;;0.85;0.73;;;;;16.80;100419.00;;;;5093277;28;20203;-82
2020/12/14 10:52:44;;;;;;;4.50;0.95;;;;;16.80;100404.00;;;;5099533;28;20202;-82
2020/12/14 10:55:11;;;;;;;1.95;0.70;;;;;16.80;100404.00;;;;5098996;28;20201;-81
2020/12/14 10:57:40;;;;;;;0.75;0.63;;;;;16.80;100404.00;;;;5085471;28;20221;-81
2020/12/14 11:00:07;;;;;;;1.10;0.88;;;;;16.80;100411.00;;;;5087994;28;20206;-80
2020/12/14 11:02:35;;;;;;;1.05;0.80;;;;;16.80;100423.00;;;;5089692;28;20577;-81
2020/12/14 11:05:03;;;;;;;1.70;0.90;;;;;16.80;100428.00;;;;5095294;28;20252;-80
2020/12/14 11:07:31;;;;;;;1.17;0.85;;;;;16.80;100430.00;;;;5094880;28;20675;-80
2020/12/14 11:09:58;;;;;;;1.13;1.00;;;;;16.80;100429.00;;;;5097963;28;20261;-80
2020/12/14 11:12:25;;;;;;;1.00;0.88;;;;;16.80;100424.00;;;;5094421;28;20193;-80
2020/12/14 11:14:53;;;;;;;2.55;0.80;;;;;16.80;100427.00;;;;5104268;28;20671;-80
2020/12/14 11:17:20;;;;;;;0.90;0.73;;;;;16.90;100427.00;;;;5094577;28;20205;-80
2020/12/14 11:19:47;;;;;;;1.05;0.90;;;;;16.90;100425.00;;;;5099562;28;20994;-80
2020/12/14 11:22:13;;;;;;;1.50;0.98;;;;;16.90;100423.00;;;;5087939;28;20202;-80
2020/12/14 11:24:40;;;;;;;0.95;0.80;;;;;16.90;100421.00;;;;5095526;28;20217;-77
2020/12/14 11:27:08;;;;;;;1.90;1.15;;;;;16.90;100423.00;;;;5102676;28;20198;-78
2020/12/14 11:29:35;;;;;;;3.05;1.20;;;;;17.00;100419.00;;;;5107970;28;20193;-78
2020/12/14 11:32:09;;;;;;;2.47;1.00;;;;;17.00;100412.00;;;;5107972;28;20202;-78
2020/12/14 11:34:40;;;;;;;1.10;0.82;;;;;17.00;100416.00;;;;5111052;28;20204;-78
2020/12/14 11:37:07;;;;;;;1.88;0.85;;;;;17.10;100412.00;;;;5100316;28;20197;-78
2020/12/14 11:39:33;;;;;;;1.33;1.00;;;;;17.10;100408.00;;;;5105622;28;20205;-78
2020/12/14 11:42:00;;;;;;;0.95;0.80;;;;;17.10;100412.00;;;;5107840;28;20197;-77
2020/12/14 11:44:27;;;;;;;2.05;1.17;;;;;17.20;100423.00;;;;5107428;28;20241;-77
2020/12/14 11:46:54;;;;;;;1.27;0.90;;;;;17.20;100418.00;;;;5105217;28;20202;-77
2020/12/14 11:49:21;;;;;;;1.33;1.13;;;;;17.20;100415.00;;;;5104610;28;20214;-77
2020/12/14 11:51:48;;;;;;;1.60;0.90;;;;;17.30;100415.00;;;;5113141;28;20199;-77
2020/12/14 11:54:16;;;;;;;1.52;1.10;;;;;17.30;100423.00;;;;5100440;28;20686;-77
2020/12/14 11:56:45;;;;;;;1.20;1.10;;;;;17.30;100421.00;;;;5103602;28;20225;-77
2020/12/14 11:59:12;;;;;;;1.80;0.80;;;;;17.40;100421.00;;;;5104608;28;20230;-77
2020/12/14 12:01:38;;;;;;;2.47;0.80;;;;;17.30;100412.00;;;;5101625;28;20194;-77
2020/12/14 12:04:05;;;;;;;2.08;1.17;;;;;17.30;100419.00;;;;5094481;28;20794;-77
2020/12/14 12:06:33;;;;;;;2.60;0.80;;;;;17.30;100414.00;;;;5097126;28;20198;-77
2020/12/14 12:09:00;;;;;;;2.85;1.17;;;;;17.30;100429.00;;;;5098598;28;20206;-78
2020/12/14 12:11:27;;;;;;;1.65;0.80;;;;;17.40;100420.00;;;;5106997;28;20202;-77
2020/12/14 12:13:53;;;;;;;1.27;0.80;;;;;17.40;100420.00;;;;5097983;28;20194;-77